Latest Weather Observations for Mount Nowa Nowa

IDV60801

Issued at 7:02 pm EST Monday 27 June 2016 (issued every 30 minutes, with the page automatically refreshed every 10 minutes)

About weather observations | Map of weather stations | Latest weather observations for VIC | Other Formats
Station Details ID: 084144 Name: MOUNT NOWA NOWA Lat: -37.69 Lon: 148.09 Height: 350.0 m
Data from the previous 72 hours. | See also: Recent months at Mount Nowa Nowa
Date/Time
EST
Temp
°C
App
Temp
°C
Dew
Point
°C
Rel
Hum
%
Delta-T
°C
Wind Press
QNH
hPa
Press
MSL
hPa
Rain since
9am
mm
Dir  Spd
km/h
Gust
km/h
Spd
kts
Gust
kts
27/07:00pm 7.3 4.3 6.2 93 0.5 WSW 11 20 6 11 - - 0.2
27/06:30pm 8.1 5.8 5.9 86 1.0 W 7 17 4 9 - - 0.0
27/06:00pm 8.4 6.2 5.5 82 1.3 WSW 6 13 3 7 - - 0.0
27/05:30pm 8.6 6.3 4.8 77 1.7 W 6 9 3 5 - - 0.0
27/05:00pm 8.7 6.3 4.3 74 2.0 W 6 9 3 5 - - 0.0
27/04:30pm 9.0 7.0 4.4 73 2.1 WNW 4 6 2 3 - - 0.0
27/04:00pm 9.6 7.6 4.6 71 2.3 W 4 6 2 3 - - 0.0
27/03:30pm 10.4 8.5 4.8 68 2.6 W 4 7 2 4 - - 0.0
27/03:00pm 11.2 8.6 4.2 62 3.2 W 7 11 4 6 - - 0.0
27/02:30pm 10.2 7.8 4.1 66 2.8 W 6 11 3 6 - - 0.0
27/02:00pm 10.3 7.6 3.6 63 3.0 W 7 13 4 7 - - 0.0
27/01:30pm 10.5 7.8 3.8 63 3.0 W 7 13 4 7 - - 0.0
27/01:00pm 9.8 7.0 2.9 62 3.0 WNW 7 13 4 7 - - 0.0
27/12:30pm 9.6 6.7 2.5 61 3.1 WNW 7 17 4 9 - - 0.0
27/12:00pm 8.8 5.9 2.6 65 2.7 WNW 7 15 4 8 - - 0.0
27/11:30am 7.2 3.9 2.3 71 2.1 NW 9 13 5 7 - - 0.0
27/11:00am 6.5 2.6 1.4 70 2.1 NW 11 19 6 10 - - 0.0
27/10:30am 5.3 1.4 1.1 74 1.7 NW 11 20 6 11 - - 0.0
27/10:00am 4.9 0.5 0.5 73 1.7 NW 13 20 7 11 - - 0.0
27/09:30am 4.2 -0.3 0.0 74 1.6 NNW 13 20 7 11 - - 0.0
27/09:00am 3.8 -0.3 -0.2 75 1.5 NW 11 20 6 11 - - 0.0
27/08:30am 3.3 -0.8 -0.2 78 1.3 NW 11 19 6 10 - - 0.0
27/08:00am 3.2 -1.2 0.1 80 1.2 NW 13 22 7 12 - - 0.0
27/07:30am 2.9 -1.1 0.3 83 1.0 NW 11 19 6 10 - - 0.0
27/07:00am 2.6 -1.4 0.3 85 0.9 NW 11 17 6 9 - - 0.0
27/06:30am 2.8 -0.8 0.5 85 0.9 NW 9 19 5 10 - - 0.0
27/06:00am 3.4 -0.1 1.0 84 0.9 NW 9 15 5 8 - - 0.0
27/05:30am 3.3 0.1 0.9 84 0.9 NW 7 13 4 7 - - 0.0
27/05:00am 3.5 0.0 1.2 85 0.9 NW 9 13 5 7 - - 0.0
27/04:30am 3.0 -0.6 0.9 86 0.8 NW 9 13 5 7 - - 0.0
27/04:00am 3.1 0.0 1.2 87 0.7 NW 7 13 4 7 - - 0.0
27/03:30am 3.9 1.1 1.9 87 0.8 WNW 6 6 3 3 - - 0.0
27/03:00am 4.0 1.0 2.0 87 0.8 W 7 9 4 5 - - 0.0
27/02:30am 4.2 1.2 2.1 86 0.9 W 7 13 4 7 - - 0.0
27/02:00am 4.0 1.0 2.2 88 0.7 W 7 11 4 6 - - 0.0
27/01:30am 3.9 1.0 2.4 90 0.6 W 7 9 4 5 - - 0.0
27/01:00am 4.0 0.7 2.7 91 0.5 W 9 11 5 6 - - 0.0
27/12:30am 4.3 1.5 3.0 91 0.5 W 7 9 4 5 - - 0.0
27/12:00am 4.5 1.9 3.3 92 0.5 W 6 9 3 5 - - 0.0
 
Date/Time
EST
Temp
°C
App
Temp
°C
Dew
Point
°C
Rel
Hum
%
Delta-T
°C
Wind Press
QNH
hPa
Press
MSL
hPa
Rain since
9am
mm
Dir  Spd
km/h
Gust
km/h
Spd
kts
Gust
kts
26/11:30pm 5.2 2.5 3.5 89 0.7 W 7 11 4 6 - - 0.0
26/11:00pm 5.5 2.8 3.7 88 0.8 W 7 13 4 7 - - 0.0
26/10:30pm 5.8 3.1 3.6 86 0.9 W 7 11 4 6 - - 0.0
26/10:00pm 6.1 3.3 3.4 83 1.2 WSW 7 13 4 7 - - 0.0
26/09:30pm 6.0 3.5 3.8 86 1.0 W 6 9 3 5 - - 0.0
26/09:00pm 6.0 3.6 4.5 90 0.7 WSW 6 9 3 5 - - 0.0
26/08:30pm 6.2 3.7 4.7 90 0.7 W 7 9 4 5 - - 0.0
26/08:00pm 6.5 4.4 4.0 84 1.1 WNW 4 6 2 3 - - 0.0
26/07:30pm 7.8 4.8 2.3 68 2.3 NW 7 11 4 6 - - 0.0
26/07:00pm 8.2 5.2 2.2 66 2.5 NW 7 15 4 8 - - 0.0
26/06:30pm 8.1 6.1 4.3 77 1.7 N 4 6 2 3 - - 0.0
26/06:00pm 7.8 5.7 5.6 86 1.0 E 6 7 3 4 - - 0.0
26/05:30pm 7.6 5.5 5.6 87 0.9 ESE 6 7 3 4 - - 0.0
26/05:00pm 8.2 6.5 5.7 84 1.2 E 4 4 2 2 - - 0.0
26/04:30pm 9.0 7.1 5.0 76 1.8 E 4 6 2 3 - - 0.0
26/04:00pm 9.8 8.1 4.2 68 2.5 ENE 2 6 1 3 - - 0.0
26/03:30pm 10.9 9.7 4.4 64 3.0 CALM 0 2 0 1 - - 0.0
26/03:00pm 11.4 9.8 4.4 62 3.2 NE 2 6 1 3 - - 0.0
26/02:30pm 11.2 9.5 4.0 61 3.3 ENE 2 6 1 3 - - 0.0
26/02:00pm 11.6 9.5 4.1 60 3.4 NNW 4 9 2 5 - - 0.0
26/01:30pm 11.5 9.9 4.3 61 3.3 NNW 2 7 1 4 - - 0.0
26/01:00pm 11.2 8.6 3.3 58 3.5 NW 6 9 3 5 - - 0.0
26/12:30pm 10.9 8.4 3.7 61 3.2 N 6 9 3 5 - - 0.0
26/12:00pm 10.3 7.8 4.0 65 2.8 NW 6 13 3 7 - - 0.0
26/11:30am 9.5 7.4 3.9 68 2.5 NNW 4 9 2 5 - - 0.0
26/11:00am 10.1 7.6 3.8 65 2.8 NW 6 13 3 7 - - 0.0
26/10:30am 8.6 5.5 3.4 70 2.3 NNW 9 15 5 8 - - 0.0
26/10:00am 7.6 3.9 2.5 70 2.2 NNW 11 20 6 11 - - 0.0
26/09:30am 6.2 2.4 1.7 73 1.9 NNW 11 19 6 10 - - 0.0
26/09:00am 6.0 2.1 1.3 72 1.9 NNW 11 19 6 10 - - 0.0
26/08:30am 5.3 1.1 1.4 76 1.6 NNW 13 20 7 11 - - 0.0
26/08:00am 5.1 0.9 1.4 77 1.5 NNW 13 20 7 11 - - 0.0
26/07:30am 5.2 1.0 1.5 77 1.5 NNW 13 17 7 9 - - 0.0
26/07:00am 5.2 1.0 1.5 77 1.5 NNW 13 20 7 11 - - 0.0
26/06:30am 5.3 1.9 1.6 77 1.5 NW 9 17 5 9 - - 0.0
26/06:00am 5.4 1.9 1.5 76 1.6 NW 9 15 5 8 - - 0.0
26/05:30am 5.2 1.4 1.7 78 1.4 NW 11 19 6 10 - - 0.0
26/05:00am 5.2 1.8 1.9 79 1.4 NW 9 17 5 9 - - 0.0
26/04:30am 4.8 1.4 2.0 82 1.1 WNW 9 13 5 7 - - 0.0
26/04:00am 4.7 0.9 1.9 82 1.1 WNW 11 19 6 10 - - 0.0
26/03:30am 4.5 0.8 2.2 85 0.9 WNW 11 19 6 10 - - 0.0
26/03:00am 4.8 1.5 2.2 83 1.1 WNW 9 15 5 8 - - 0.0
26/02:30am 4.9 1.9 2.3 83 1.1 WNW 7 13 4 7 - - 0.0
26/02:00am 5.1 2.1 2.3 82 1.2 WNW 7 15 4 8 - - 0.0
26/01:30am 5.0 2.1 2.4 83 1.1 WNW 7 13 4 7 - - 0.0
26/01:00am 5.2 2.3 2.4 82 1.2 WNW 7 13 4 7 - - 0.0
26/12:30am 5.2 2.3 2.4 82 1.2 WNW 7 13 4 7 - - 0.0
26/12:00am 5.5 2.2 2.5 81 1.2 WNW 9 17 5 9 - - 0.0
 
Date/Time
EST
Temp
°C
App
Temp
°C
Dew
Point
°C
Rel
Hum
%
Delta-T
°C
Wind Press
QNH
hPa
Press
MSL
hPa
Rain since
9am
mm
Dir  Spd
km/h
Gust
km/h
Spd
kts
Gust
kts
25/11:30pm 5.6 2.7 2.6 81 1.3 WNW 7 11 4 6 - - 0.0
25/11:00pm 5.4 2.7 2.6 82 1.2 WNW 6 11 3 6 - - 0.0
25/10:30pm 5.6 2.0 2.8 82 1.2 W 11 13 6 7 - - 0.0
25/10:00pm 5.8 1.8 2.8 81 1.3 W 13 15 7 8 - - 0.0
25/09:30pm 5.7 2.1 2.9 82 1.2 W 11 13 6 7 - - 0.0
25/09:00pm 5.9 2.3 2.9 81 1.3 W 11 17 6 9 - - 0.0
25/08:30pm 6.1 2.9 3.1 81 1.3 W 9 15 5 8 - - 0.0
25/08:00pm 6.3 2.7 3.1 80 1.4 W 11 17 6 9 - - 0.0
25/07:30pm 6.5 2.9 3.1 79 1.5 W 11 19 6 10 - - 0.0
25/07:00pm 6.5 2.9 3.1 79 1.5 W 11 15 6 8 - - 0.0
25/06:30pm 6.5 3.0 3.3 80 1.4 W 11 17 6 9 - - 0.0
25/06:00pm 6.4 2.8 3.2 80 1.4 W 11 19 6 10 - - 0.0
25/05:30pm 6.5 3.3 3.3 80 1.4 W 9 17 5 9 - - 0.0
25/05:00pm 7.0 3.5 3.4 78 1.6 W 11 20 6 11 - - 0.0
25/04:30pm 7.4 3.9 3.5 76 1.7 W 11 26 6 14 - - 0.0
25/04:00pm 7.6 3.6 3.1 73 1.9 W 13 24 7 13 - - 0.0
25/03:30pm 7.6 4.1 3.5 75 1.8 W 11 24 6 13 - - 0.0
25/03:00pm 8.0 4.5 3.3 72 2.0 W 11 24 6 13 - - 0.0
25/02:30pm 7.9 4.3 3.2 72 2.0 W 11 26 6 14 - - 0.0
25/02:00pm 8.2 4.7 3.3 71 2.1 WSW 11 24 6 13 - - 0.0
25/01:30pm 8.5 4.5 3.1 69 2.3 W 13 26 7 14 - - 0.0
25/01:00pm 8.9 5.4 3.5 69 2.4 W 11 24 6 13 - - 0.0
25/12:30pm 8.7 5.2 3.7 71 2.2 W 11 24 6 13 - - 0.0
25/12:00pm 7.4 3.1 3.1 74 1.9 W 15 32 8 17 - - 0.0
25/11:30am 7.6 4.5 3.6 76 1.7 W 9 20 5 11 - - 0.0
25/11:00am 6.5 2.9 3.1 79 1.5 W 11 30 6 16 - - 0.0
25/10:30am 6.2 2.6 2.7 78 1.5 W 11 20 6 11 - - 0.0
25/10:00am 5.8 1.8 2.6 80 1.3 W 13 28 7 15 - - 0.0
25/09:30am 4.6 0.8 2.0 83 1.1 W 11 24 6 13 - - 0.0
25/09:00am 4.3 -0.3 1.7 83 1.0 W 15 28 8 15 - - 0.6
25/08:30am 3.5 -0.8 1.2 85 0.9 W 13 20 7 11 - - 0.6
25/08:00am 3.3 -1.0 1.0 85 0.9 W 13 22 7 12 - - 0.6
25/07:30am 3.4 -1.3 1.1 85 0.9 W 15 30 8 16 - - 0.6
25/07:00am 3.1 -1.2 1.0 86 0.8 W 13 19 7 10 - - 0.6
25/06:30am 3.0 -1.7 0.9 86 0.8 W 15 24 8 13 - - 0.6
25/06:00am 3.0 -1.7 0.9 86 0.8 W 15 24 8 13 - - 0.6
25/05:30am 3.0 -2.1 0.9 86 0.8 W 17 30 9 16 - - 0.6
25/05:00am 3.0 -2.1 0.9 86 0.8 W 17 24 9 13 - - 0.6
25/04:30am 3.1 -2.0 1.0 86 0.8 W 17 33 9 18 - - 0.6
25/04:00am 3.1 -2.0 0.8 85 0.9 W 17 28 9 15 - - 0.6
25/03:30am 3.1 -2.0 0.8 85 0.9 W 17 28 9 15 - - 0.6
25/03:00am 2.9 -2.2 1.0 87 0.7 W 17 32 9 17 - - 0.6
25/02:30am 2.9 -2.2 1.0 87 0.7 W 17 33 9 18 - - 0.6
25/02:00am 2.8 -2.3 0.7 86 0.8 W 17 28 9 15 - - 0.6
25/01:30am 2.8 -2.3 0.5 85 0.9 W 17 30 9 16 - - 0.6
25/01:00am 2.7 -2.5 0.3 84 0.9 W 17 32 9 17 - - 0.6
25/12:30am 2.6 -2.2 0.3 85 0.9 W 15 22 8 12 - - 0.6
25/12:00am 2.7 -2.1 0.3 84 0.9 W 15 28 8 15 - - 0.6
 
Date/Time
EST
Temp
°C
App
Temp
°C
Dew
Point
°C
Rel
Hum
%
Delta-T
°C
Wind Press
QNH
hPa
Press
MSL
hPa
Rain since
9am
mm
Dir  Spd
km/h
Gust
km/h
Spd
kts
Gust
kts
24/11:30pm 2.8 -2.4 0.4 84 0.9 W 17 30 9 16 - - 0.6
24/11:00pm 2.6 -2.6 0.3 85 0.9 W 17 33 9 18 - - 0.6
24/10:30pm 2.8 -2.0 0.4 84 0.9 W 15 24 8 13 - - 0.6
24/10:00pm 3.1 -2.4 0.5 83 1.0 W 19 33 10 18 - - 0.6
24/09:30pm 3.1 -1.6 0.7 84 0.9 W 15 30 8 16 - - 0.6
24/09:00pm 3.0 -2.1 0.6 84 0.9 W 17 32 9 17 - - 0.6
24/08:30pm 3.0 -1.7 0.7 85 0.9 W 15 24 8 13 - - 0.6
24/08:00pm 3.3 -2.1 1.0 85 0.9 W 19 35 10 19 - - 0.6
24/07:30pm 3.0 -2.0 1.1 87 0.7 W 17 37 9 20 - - 0.4

Other Formats:

Comma delimited format used in spreadsheet applications
http://www.bom.gov.au/fwo/IDV60801/IDV60801.94930.axf

JavaScript Object Notation format (JSON) in row-major order
http://www.bom.gov.au/fwo/IDV60801/IDV60801.94930.json